createdAt,value
2023-02-28T00:00:23.204Z,92.90
2023-02-28T00:02:50.749Z,93.00
2023-02-28T00:05:20.532Z,93.20
2023-02-28T00:07:48.512Z,93.30
2023-02-28T00:10:21.738Z,93.50
2023-02-28T00:12:50.192Z,93.60
2023-02-28T00:15:17.692Z,93.60
2023-02-28T00:17:45.587Z,93.70
2023-02-28T00:20:14.241Z,93.90
2023-02-28T00:22:43.823Z,94.10
2023-02-28T00:25:13.184Z,94.30
2023-02-28T00:27:40.795Z,94.40
2023-02-28T00:30:10.937Z,94.70
2023-02-28T00:32:38.619Z,94.90
2023-02-28T00:35:39.863Z,95.20
2023-02-28T00:38:09.342Z,95.40
2023-02-28T00:40:36.356Z,95.60
2023-02-28T00:43:04.299Z,96.00
2023-02-28T00:45:31.543Z,96.20
2023-02-28T00:47:58.630Z,96.60
2023-02-28T00:50:26.090Z,96.80
2023-02-28T00:52:53.128Z,97.10
2023-02-28T00:55:21.002Z,97.20
2023-02-28T00:57:48.924Z,97.40
2023-02-28T01:00:16.431Z,97.60
2023-02-28T01:02:43.629Z,97.90
2023-02-28T01:05:11.354Z,98.00
2023-02-28T01:07:39.425Z,98.20
2023-02-28T01:10:06.948Z,98.20
2023-02-28T01:12:34.038Z,98.40
2023-02-28T01:15:01.137Z,98.50
2023-02-28T01:17:28.212Z,98.60
2023-02-28T01:19:57.868Z,98.70
2023-02-28T01:22:25.962Z,98.80
2023-02-28T01:24:53.082Z,98.90
2023-02-28T01:27:20.095Z,99.10
2023-02-28T01:29:47.125Z,99.50
2023-02-28T01:32:14.352Z,99.70
2023-02-28T01:34:41.487Z,99.80
2023-02-28T01:37:08.475Z,99.90
2023-02-28T01:39:35.483Z,100.00
2023-02-28T01:42:04.168Z,100.00
2023-02-28T01:45:01.677Z,100.00
2023-02-28T01:47:39.634Z,100.00
2023-02-28T01:50:12.733Z,100.00
2023-02-28T01:52:45.416Z,100.00
2023-02-28T01:55:14.175Z,100.00
2023-02-28T01:57:51.361Z,100.00
2023-02-28T02:00:23.475Z,100.00
2023-02-28T02:02:54.221Z,100.00
2023-02-28T02:05:24.226Z,100.00
2023-02-28T02:07:57.218Z,100.00
2023-02-28T02:10:42.200Z,100.00
2023-02-28T02:13:27.370Z,100.00
2023-02-28T02:16:15.548Z,100.00
2023-02-28T02:18:52.059Z,100.00
2023-02-28T02:21:47.759Z,100.00
2023-02-28T02:24:39.270Z,100.00
2023-02-28T02:27:29.937Z,100.00
2023-02-28T02:30:15.679Z,100.00
2023-02-28T02:33:05.562Z,100.00
2023-02-28T02:35:56.638Z,100.00
2023-02-28T02:38:27.262Z,100.00
2023-02-28T02:40:54.193Z,100.00
2023-02-28T02:43:27.702Z,100.00
2023-02-28T02:46:04.813Z,100.00
2023-02-28T02:48:35.365Z,100.00
2023-02-28T02:51:12.835Z,100.00
2023-02-28T02:54:31.129Z,100.00
2023-02-28T02:57:06.963Z,100.00
2023-02-28T02:59:34.861Z,100.00
2023-02-28T03:02:06.822Z,100.00
2023-02-28T03:04:41.501Z,100.00
2023-02-28T03:07:08.552Z,100.00
2023-02-28T03:09:36.755Z,100.00
2023-02-28T03:12:07.490Z,100.00
2023-02-28T03:15:11.873Z,100.00
2023-02-28T03:18:03.652Z,100.00
2023-02-28T03:20:49.276Z,100.00
2023-02-28T03:23:36.487Z,100.00
2023-02-28T03:26:19.737Z,100.00
2023-02-28T03:29:08.205Z,100.00
2023-02-28T03:31:41.854Z,100.00
2023-02-28T03:34:30.210Z,100.00
2023-02-28T03:37:07.849Z,100.00
2023-02-28T03:39:34.793Z,100.00
2023-02-28T03:42:19.224Z,100.00
2023-02-28T03:44:55.059Z,100.00
2023-02-28T03:47:44.409Z,100.00
2023-02-28T03:50:22.871Z,100.00
2023-02-28T03:52:56.131Z,100.00
2023-02-28T03:55:23.317Z,100.00
2023-02-28T03:58:14.194Z,100.00
2023-02-28T04:01:13.363Z,100.00
2023-02-28T04:03:40.515Z,100.00
2023-02-28T04:06:14.076Z,100.00
2023-02-28T04:08:41.408Z,100.00
2023-02-28T04:11:20.064Z,100.00
2023-02-28T04:13:47.686Z,100.00
2023-02-28T04:16:32.025Z,100.00
2023-02-28T04:19:06.262Z,100.00
2023-02-28T04:21:40.142Z,100.00
2023-02-28T04:24:09.348Z,100.00
2023-02-28T04:26:37.902Z,100.00
2023-02-28T04:29:08.556Z,100.00
2023-02-28T04:31:35.801Z,100.00
2023-02-28T04:34:03.313Z,100.00
2023-02-28T04:36:30.824Z,100.00
2023-02-28T04:38:57.918Z,100.00
2023-02-28T04:41:25.335Z,100.00
2023-02-28T04:43:54.100Z,100.00
2023-02-28T04:46:21.999Z,100.00
2023-02-28T04:48:49.218Z,100.00
2023-02-28T04:51:18.268Z,100.00
2023-02-28T04:53:45.694Z,100.00
2023-02-28T04:56:18.433Z,100.00
2023-02-28T04:58:46.155Z,100.00
2023-02-28T05:01:23.588Z,100.00
2023-02-28T05:03:51.480Z,100.00
2023-02-28T05:06:19.706Z,100.00
2023-02-28T05:08:47.205Z,100.00
2023-02-28T05:11:24.482Z,100.00
2023-02-28T05:13:52.732Z,100.00
2023-02-28T05:16:20.351Z,100.00
2023-02-28T05:18:47.913Z,100.00
2023-02-28T05:21:27.226Z,100.00
2023-02-28T05:23:55.378Z,100.00
2023-02-28T05:26:22.674Z,100.00
2023-02-28T05:28:49.975Z,100.00
2023-02-28T05:31:17.092Z,100.00
2023-02-28T05:33:44.133Z,100.00
2023-02-28T05:36:11.316Z,100.00
2023-02-28T05:38:39.020Z,100.00
2023-02-28T05:41:07.998Z,100.00
2023-02-28T05:43:35.829Z,100.00
2023-02-28T05:46:10.983Z,100.00
2023-02-28T05:48:39.983Z,100.00
2023-02-28T05:51:08.439Z,100.00
2023-02-28T05:53:36.009Z,100.00
2023-02-28T05:56:03.101Z,100.00
2023-02-28T05:58:32.045Z,100.00
2023-02-28T06:01:38.218Z,100.00
2023-02-28T06:04:07.140Z,100.00
2023-02-28T06:06:38.038Z,100.00
2023-02-28T06:09:06.485Z,100.00
2023-02-28T06:11:34.205Z,100.00
2023-02-28T06:14:02.755Z,100.00
2023-02-28T06:16:31.673Z,100.00
2023-02-28T06:19:01.188Z,100.00
2023-02-28T06:21:31.616Z,100.00
2023-02-28T06:23:59.839Z,100.00
2023-02-28T06:26:27.028Z,100.00
2023-02-28T06:28:54.469Z,100.00
2023-02-28T06:31:22.199Z,100.00
2023-02-28T06:33:49.937Z,100.00
2023-02-28T06:36:18.493Z,100.00
2023-02-28T06:38:45.774Z,100.00
2023-02-28T06:41:12.753Z,100.00
2023-02-28T06:43:42.297Z,100.00
2023-02-28T06:46:12.437Z,100.00
2023-02-28T06:48:39.495Z,100.00
2023-02-28T06:51:11.801Z,100.00
2023-02-28T06:53:39.644Z,100.00
2023-02-28T06:56:09.231Z,100.00
2023-02-28T06:58:36.774Z,100.00
2023-02-28T07:01:04.276Z,100.00
2023-02-28T07:03:34.290Z,100.00
2023-02-28T07:06:02.187Z,100.00
2023-02-28T07:08:29.540Z,100.00
2023-02-28T07:10:57.054Z,100.00
2023-02-28T07:13:25.069Z,100.00
2023-02-28T07:16:04.753Z,100.00
2023-02-28T07:18:32.591Z,100.00
2023-02-28T07:20:59.682Z,100.00
2023-02-28T07:23:26.767Z,100.00
2023-02-28T07:25:53.828Z,100.00
2023-02-28T07:28:24.494Z,100.00
2023-02-28T07:30:51.724Z,100.00
2023-02-28T07:33:18.986Z,100.00
2023-02-28T07:35:46.105Z,100.00
2023-02-28T07:38:14.948Z,100.00
2023-02-28T07:40:41.960Z,100.00
2023-02-28T07:43:09.277Z,100.00
2023-02-28T07:45:36.327Z,100.00
2023-02-28T07:48:03.768Z,100.00
2023-02-28T07:50:32.251Z,100.00
2023-02-28T07:53:00.308Z,100.00
2023-02-28T07:55:27.565Z,100.00
2023-02-28T07:57:55.091Z,100.00
2023-02-28T08:00:22.931Z,100.00
2023-02-28T08:02:50.184Z,99.60
2023-02-28T08:05:18.452Z,99.20
2023-02-28T08:07:48.700Z,98.60
2023-02-28T08:10:15.867Z,98.70
2023-02-28T08:12:42.908Z,98.30
2023-02-28T08:15:10.442Z,97.80
2023-02-28T08:17:37.533Z,97.30
2023-02-28T08:20:05.769Z,96.90
2023-02-28T08:22:32.948Z,96.10
2023-02-28T08:24:59.948Z,95.60
2023-02-28T08:27:26.944Z,95.60
2023-02-28T08:29:53.945Z,94.50
2023-02-28T08:32:29.748Z,94.70
2023-02-28T08:34:57.545Z,93.00
2023-02-28T08:37:24.697Z,92.60
2023-02-28T08:39:53.976Z,92.30
2023-02-28T08:42:23.702Z,91.90
2023-02-28T08:44:50.747Z,92.30
2023-02-28T08:47:17.823Z,92.20
2023-02-28T08:49:44.814Z,92.20
2023-02-28T08:52:11.936Z,91.80
2023-02-28T08:54:39.029Z,91.60
2023-02-28T08:57:06.118Z,90.50
2023-02-28T08:59:33.733Z,90.30
2023-02-28T09:02:00.864Z,89.80
2023-02-28T09:04:28.021Z,90.00
2023-02-28T09:06:55.034Z,89.20
2023-02-28T09:09:22.033Z,87.50
2023-02-28T09:11:49.101Z,87.50
2023-02-28T09:14:18.551Z,87.60
2023-02-28T09:16:45.636Z,87.10
2023-02-28T09:19:13.633Z,85.20
2023-02-28T09:21:40.940Z,84.30
2023-02-28T09:24:09.368Z,84.60
2023-02-28T09:26:42.734Z,83.90
2023-02-28T09:29:15.701Z,84.40
2023-02-28T09:31:42.675Z,83.90
2023-02-28T09:34:09.976Z,83.40
2023-02-28T09:36:45.466Z,82.80
2023-02-28T09:39:13.936Z,82.00
2023-02-28T09:41:52.052Z,82.10
2023-02-28T09:44:33.267Z,80.30
2023-02-28T09:47:32.358Z,80.00
2023-02-28T09:50:08.590Z,78.60
2023-02-28T09:52:36.389Z,79.00
2023-02-28T09:55:19.745Z,80.40
2023-02-28T09:57:47.461Z,79.70
2023-02-28T10:00:25.686Z,77.60
2023-02-28T10:03:11.399Z,79.00
2023-02-28T10:05:50.557Z,78.40
2023-02-28T10:08:26.122Z,78.30
2023-02-28T10:10:56.870Z,77.90
2023-02-28T10:13:35.938Z,76.30
2023-02-28T10:16:11.708Z,75.80
2023-02-28T10:19:24.511Z,75.90
2023-02-28T10:22:00.475Z,74.30
2023-02-28T10:24:44.143Z,73.10
2023-02-28T10:27:17.406Z,74.00
2023-02-28T10:29:46.971Z,74.10
2023-02-28T10:32:16.492Z,73.00
2023-02-28T10:34:43.693Z,72.60
2023-02-28T10:37:13.940Z,71.70
2023-02-28T10:39:47.772Z,72.70
2023-02-28T10:42:29.626Z,72.20
2023-02-28T10:45:18.608Z,71.50
2023-02-28T10:48:05.542Z,71.40
2023-02-28T10:50:50.981Z,71.20
2023-02-28T10:53:26.977Z,70.60
2023-02-28T10:56:11.996Z,69.90
2023-02-28T10:59:24.069Z,69.80
2023-02-28T11:01:53.926Z,69.10
2023-02-28T11:04:36.889Z,68.60
2023-02-28T11:07:17.912Z,67.60
2023-02-28T11:09:50.326Z,68.50
2023-02-28T11:12:43.443Z,67.70
2023-02-28T11:15:55.339Z,68.10
2023-02-28T11:18:22.370Z,68.60
2023-02-28T11:20:54.647Z,68.00
2023-02-28T11:27:51.363Z,67.50
2023-02-28T11:30:31.034Z,67.20
2023-02-28T11:32:58.036Z,66.30
2023-02-28T11:35:45.308Z,67.60
2023-02-28T11:38:14.138Z,66.10
2023-02-28T11:44:57.365Z,66.30
2023-02-28T11:47:46.079Z,65.50
2023-02-28T11:51:16.647Z,65.60
2023-02-28T11:53:55.544Z,66.20
2023-02-28T11:56:34.205Z,66.80
2023-02-28T11:59:12.737Z,65.30
2023-02-28T12:01:47.790Z,67.30
2023-02-28T12:04:33.501Z,66.80
2023-02-28T12:07:26.514Z,65.50
2023-02-28T12:09:58.733Z,66.20
2023-02-28T12:12:39.409Z,65.70
2023-02-28T12:15:09.452Z,65.60
2023-02-28T12:17:46.193Z,64.90
2023-02-28T12:20:25.814Z,63.60
2023-02-28T12:23:05.328Z,63.40
2023-02-28T12:25:32.310Z,62.70
2023-02-28T12:28:00.516Z,62.70
2023-02-28T12:30:34.934Z,61.80
2023-02-28T12:33:13.512Z,61.40
2023-02-28T12:35:56.714Z,59.60
2023-02-28T12:39:05.088Z,60.90
2023-02-28T12:41:52.216Z,62.60
2023-02-28T12:44:28.670Z,62.60
2023-02-28T12:47:00.965Z,61.90
2023-02-28T12:49:28.075Z,61.30
2023-02-28T12:51:55.118Z,61.00
2023-02-28T12:54:28.774Z,59.50
2023-02-28T12:57:19.452Z,60.60
2023-02-28T12:59:57.961Z,61.40
2023-02-28T13:02:47.985Z,61.20
2023-02-28T13:05:27.358Z,62.80
2023-02-28T13:08:21.789Z,64.60
2023-02-28T13:10:55.284Z,65.50
2023-02-28T13:13:26.901Z,66.10
2023-02-28T13:16:11.734Z,64.30
2023-02-28T13:18:41.189Z,64.20
2023-02-28T13:21:10.605Z,63.90
2023-02-28T13:23:48.176Z,63.30
2023-02-28T13:26:15.163Z,63.80
2023-02-28T13:28:58.682Z,64.20
2023-02-28T13:31:26.491Z,66.00
2023-02-28T13:34:14.475Z,66.40
2023-02-28T13:40:38.862Z,66.90
2023-02-28T13:43:08.728Z,67.80
2023-02-28T13:45:40.678Z,66.10
2023-02-28T13:48:20.387Z,64.00
2023-02-28T13:50:47.299Z,63.40
2023-02-28T13:53:14.276Z,63.90
2023-02-28T13:55:49.864Z,65.00
2023-02-28T13:58:44.463Z,65.90
2023-02-28T14:01:52.561Z,67.00
2023-02-28T14:04:51.571Z,64.80
2023-02-28T14:07:36.401Z,65.70
2023-02-28T14:11:13.189Z,66.30
2023-02-28T14:14:58.538Z,66.10
2023-02-28T14:18:22.697Z,67.00
2023-02-28T14:21:31.992Z,66.60
2023-02-28T14:25:01.728Z,66.80
2023-02-28T14:27:51.078Z,66.50
2023-02-28T14:30:52.080Z,66.20
2023-02-28T14:33:47.557Z,66.50
2023-02-28T14:36:33.447Z,65.50
2023-02-28T14:39:13.042Z,65.20
2023-02-28T14:42:45.049Z,64.60
2023-02-28T14:45:40.967Z,64.20
2023-02-28T14:48:11.513Z,63.10
2023-02-28T14:50:38.828Z,62.50
2023-02-28T14:53:27.087Z,62.50
2023-02-28T14:55:54.373Z,62.60
2023-02-28T14:58:27.257Z,62.40
2023-02-28T15:01:01.861Z,62.00
2023-02-28T15:03:37.221Z,61.70
2023-02-28T15:06:56.967Z,62.20
2023-02-28T15:09:24.040Z,61.90
2023-02-28T15:11:51.614Z,62.30
2023-02-28T15:14:22.388Z,61.70
2023-02-28T15:16:56.999Z,62.00
2023-02-28T15:19:37.231Z,61.50
2023-02-28T15:22:08.629Z,62.00
2023-02-28T15:24:43.791Z,62.80
2023-02-28T15:27:22.247Z,63.00
2023-02-28T15:29:54.639Z,63.60
2023-02-28T15:32:29.556Z,64.90
2023-02-28T15:34:57.970Z,65.60
2023-02-28T15:37:46.187Z,65.50
2023-02-28T15:40:18.820Z,65.40
2023-02-28T15:43:01.091Z,65.20
2023-02-28T15:45:32.894Z,64.70
2023-02-28T15:48:05.675Z,65.10
2023-02-28T15:50:40.608Z,65.10
2023-02-28T15:53:18.521Z,66.20
2023-02-28T15:55:46.193Z,66.60
2023-02-28T15:58:14.287Z,66.00
2023-02-28T16:00:46.662Z,66.20
2023-02-28T16:03:41.836Z,65.70
2023-02-28T16:06:31.856Z,66.20
2023-02-28T16:08:58.894Z,66.30
2023-02-28T16:11:26.114Z,66.30
2023-02-28T16:13:54.096Z,66.40
2023-02-28T16:16:27.109Z,66.50
2023-02-28T16:18:54.560Z,66.30
2023-02-28T16:21:21.811Z,66.40
2023-02-28T16:23:48.873Z,66.50
2023-02-28T16:26:22.212Z,66.50
2023-02-28T16:28:49.770Z,66.40
2023-02-28T16:31:17.699Z,66.70
2023-02-28T16:33:46.405Z,66.80
2023-02-28T16:36:22.731Z,67.10
2023-02-28T16:38:49.764Z,67.00
2023-02-28T16:42:13.011Z,67.10
2023-02-28T16:44:41.409Z,67.00
2023-02-28T16:47:11.948Z,67.30
2023-02-28T16:49:39.471Z,68.10
2023-02-28T16:52:07.104Z,68.60
2023-02-28T16:54:34.150Z,68.90
2023-02-28T16:57:01.858Z,68.90
2023-02-28T16:59:30.529Z,69.50
2023-02-28T17:02:00.517Z,69.60
2023-02-28T17:04:28.338Z,69.50
2023-02-28T17:07:31.646Z,69.70
2023-02-28T17:09:58.647Z,69.60
2023-02-28T17:12:25.847Z,69.60
2023-02-28T17:14:52.918Z,69.90
2023-02-28T17:17:22.762Z,70.00
2023-02-28T17:19:49.937Z,70.50
2023-02-28T17:22:16.980Z,71.20
2023-02-28T17:24:44.068Z,72.00
2023-02-28T17:27:13.859Z,72.90
2023-02-28T17:29:41.202Z,73.80
2023-02-28T17:32:17.230Z,74.50
2023-02-28T17:34:47.144Z,74.80
2023-02-28T17:37:14.467Z,75.20
2023-02-28T17:39:41.573Z,75.60
2023-02-28T17:42:27.043Z,75.90
2023-02-28T17:44:54.048Z,76.40
2023-02-28T17:47:21.037Z,76.70
2023-02-28T17:49:48.047Z,76.90
2023-02-28T17:52:15.024Z,77.10
2023-02-28T17:54:42.058Z,77.70
2023-02-28T17:57:15.566Z,77.60
2023-02-28T17:59:43.260Z,77.80
2023-02-28T18:02:14.460Z,77.60
2023-02-28T18:04:41.704Z,77.60
2023-02-28T18:07:11.731Z,77.80
2023-02-28T18:09:38.805Z,77.90
2023-02-28T18:12:06.122Z,78.00
2023-02-28T18:14:33.136Z,78.20
2023-02-28T18:17:00.163Z,78.30
2023-02-28T18:19:27.165Z,78.50
2023-02-28T18:21:54.934Z,78.80
2023-02-28T18:24:24.656Z,78.90
2023-02-28T18:26:52.575Z,79.20
2023-02-28T18:29:23.333Z,79.50
2023-02-28T18:31:54.235Z,79.70
2023-02-28T18:34:22.958Z,80.00
2023-02-28T18:36:51.596Z,80.10
2023-02-28T18:39:19.325Z,80.30
2023-02-28T18:41:46.470Z,80.40
2023-02-28T18:45:15.532Z,80.70
2023-02-28T18:47:42.519Z,80.90
2023-02-28T18:50:10.417Z,81.00
2023-02-28T18:52:39.063Z,80.80
2023-02-28T18:55:08.534Z,81.00
2023-02-28T18:57:35.403Z,81.10
2023-02-28T19:00:02.569Z,80.90
2023-02-28T19:02:29.556Z,80.80
2023-02-28T19:05:25.613Z,80.90
2023-02-28T19:07:52.538Z,80.90
2023-02-28T19:10:19.836Z,80.60
2023-02-28T19:12:47.202Z,80.60
2023-02-28T19:15:14.209Z,80.40
2023-02-28T19:17:41.279Z,80.60
2023-02-28T19:20:09.947Z,80.90
2023-02-28T19:22:37.231Z,81.00
2023-02-28T19:25:08.309Z,81.10
2023-02-28T19:27:35.354Z,81.30
2023-02-28T19:30:03.038Z,81.50
2023-02-28T19:32:30.178Z,81.70
2023-02-28T19:34:57.235Z,82.20
2023-02-28T19:37:24.330Z,82.50
2023-02-28T19:39:54.794Z,82.90
2023-02-28T19:42:22.145Z,83.10
2023-02-28T19:44:50.130Z,83.40
2023-02-28T19:47:17.384Z,83.70
2023-02-28T19:49:44.454Z,83.70
2023-02-28T19:52:14.925Z,83.80
2023-02-28T19:54:42.712Z,83.70
2023-02-28T19:57:09.697Z,83.60
2023-02-28T19:59:39.826Z,83.30
2023-02-28T20:02:18.352Z,83.50
2023-02-28T20:04:50.197Z,83.80
2023-02-28T20:07:20.411Z,84.00
2023-02-28T20:09:48.539Z,84.20
2023-02-28T20:12:25.184Z,84.60
2023-02-28T20:14:56.223Z,84.90
2023-02-28T20:17:24.289Z,85.40
2023-02-28T20:19:51.745Z,85.50
2023-02-28T20:22:19.249Z,85.60
2023-02-28T20:25:49.592Z,85.60
2023-02-28T20:28:17.395Z,85.70
2023-02-28T20:30:46.073Z,85.70
2023-02-28T20:33:13.270Z,85.80
2023-02-28T20:35:40.396Z,85.90
2023-02-28T20:38:09.027Z,86.10
2023-02-28T20:40:36.552Z,86.10
2023-02-28T20:43:04.648Z,86.30
2023-02-28T20:45:32.454Z,86.70
2023-02-28T20:48:00.261Z,86.90
2023-02-28T20:50:27.836Z,87.30
2023-02-28T20:52:55.398Z,87.60
2023-02-28T20:55:22.552Z,87.80
2023-02-28T20:57:50.220Z,87.80
2023-02-28T21:00:20.682Z,88.00
2023-02-28T21:02:48.185Z,88.00
2023-02-28T21:05:15.781Z,87.80
2023-02-28T21:07:42.923Z,87.80
2023-02-28T21:10:10.822Z,88.00
2023-02-28T21:12:38.158Z,88.20
2023-02-28T21:15:05.860Z,88.50
2023-02-28T21:17:33.484Z,88.50
2023-02-28T21:20:00.970Z,88.50
2023-02-28T21:22:28.248Z,88.60
2023-02-28T21:24:55.736Z,88.70
2023-02-28T21:27:23.081Z,88.70
2023-02-28T21:29:50.369Z,88.70
2023-02-28T21:32:18.030Z,88.70
2023-02-28T21:34:45.659Z,88.80
2023-02-28T21:37:13.016Z,88.90
2023-02-28T21:39:40.123Z,88.90
2023-02-28T21:42:07.180Z,88.90
2023-02-28T21:44:34.802Z,88.90
2023-02-28T21:47:02.333Z,88.90
2023-02-28T21:49:29.822Z,88.90
2023-02-28T21:51:57.617Z,89.10
2023-02-28T21:54:25.118Z,89.30
2023-02-28T21:56:52.279Z,89.20
2023-02-28T21:59:19.897Z,89.30
2023-02-28T22:01:49.186Z,89.30
2023-02-28T22:04:21.415Z,89.30
2023-02-28T22:06:57.830Z,89.10
2023-02-28T22:09:25.937Z,89.20
2023-02-28T22:11:52.947Z,89.30
2023-02-28T22:14:20.037Z,89.70
2023-02-28T22:16:51.848Z,89.80
2023-02-28T22:19:21.761Z,89.90
2023-02-28T22:21:49.013Z,90.00
2023-02-28T22:24:18.090Z,90.10
2023-02-28T22:26:45.273Z,89.90
2023-02-28T22:30:05.932Z,90.00
2023-02-28T22:32:33.005Z,90.20
2023-02-28T22:35:00.007Z,90.30
2023-02-28T22:37:27.026Z,90.30
2023-02-28T22:39:54.057Z,90.60
2023-02-28T22:42:21.577Z,90.60
2023-02-28T22:44:51.155Z,90.60
2023-02-28T22:47:18.383Z,90.50
2023-02-28T22:49:45.481Z,90.60
2023-02-28T22:52:12.521Z,90.80
2023-02-28T22:54:39.984Z,91.10
2023-02-28T22:57:06.946Z,91.20
2023-02-28T22:59:34.010Z,91.40
2023-02-28T23:02:01.063Z,91.50
2023-02-28T23:04:28.099Z,91.20
2023-02-28T23:06:55.157Z,91.10
2023-02-28T23:09:25.276Z,90.70
2023-02-28T23:11:53.526Z,90.70
2023-02-28T23:14:21.352Z,90.60
2023-02-28T23:16:50.964Z,90.60
2023-02-28T23:19:24.800Z,90.70
2023-02-28T23:21:51.910Z,91.30
2023-02-28T23:24:21.315Z,91.50
2023-02-28T23:26:49.663Z,91.80
2023-02-28T23:29:18.948Z,92.00
2023-02-28T23:31:45.965Z,91.90
2023-02-28T23:34:13.622Z,91.60
2023-02-28T23:36:47.799Z,91.20
2023-02-28T23:39:17.524Z,90.70
2023-02-28T23:41:44.700Z,90.20
2023-02-28T23:44:16.983Z,89.90
2023-02-28T23:46:51.965Z,90.30
2023-02-28T23:49:20.117Z,90.60
2023-02-28T23:51:49.469Z,91.10
2023-02-28T23:54:17.671Z,91.60
2023-02-28T23:56:45.061Z,92.20
2023-02-28T23:59:12.233Z,92.80
